Time;durP1;ratioP1;P1;durP2;ratioP2;P2;SDS_P1;SDS_P2;PMS_P1;PMS_P2;Temp;Humidity;BMP_temperature;BMP_pressure;BME280_temperature;BME280_humidity;BME280_pressure;Samples;Min_cycle;Max_cycle;Signal;HPM_P1;HPM_P2
2023/08/12 00:00:19;;;;;;;8.50;5.03;;;;;;;22.32;75.59;100176.63;6151948;23;20043;-87
2023/08/12 00:02:46;;;;;;;5.72;4.25;;;;;;;22.32;75.33;100173.09;6152362;23;20017;-87
2023/08/12 00:05:14;;;;;;;8.50;4.72;;;;;;;22.31;75.28;100172.25;6177227;23;20396;-87
2023/08/12 00:07:43;;;;;;;6.15;3.95;;;;;;;22.29;75.14;100165.38;6177698;23;20040;-87
2023/08/12 00:10:11;;;;;;;7.10;4.93;;;;;;;22.28;75.19;100161.00;6176958;23;20497;-87
2023/08/12 00:12:38;;;;;;;5.85;4.43;;;;;;;22.26;75.38;100161.22;6151358;23;20095;-87
2023/08/12 00:15:07;;;;;;;6.25;4.28;;;;;;;22.25;75.19;100150.59;6178254;23;20341;-87
2023/08/12 00:17:37;;;;;;;7.13;4.47;;;;;;;22.20;75.16;100150.38;6176903;23;20020;-87
2023/08/12 00:20:10;;;;;;;7.15;4.50;;;;;;;22.20;75.29;100151.19;6201494;23;20035;-87
2023/08/12 00:22:38;;;;;;;8.73;4.60;;;;;;;22.19;75.23;100144.13;6153333;23;20368;-87
2023/08/12 00:25:06;;;;;;;7.90;4.05;;;;;;;22.18;75.18;100150.53;6177493;23;20070;-87
2023/08/12 00:27:33;;;;;;;6.72;4.38;;;;;;;22.17;75.33;100140.75;6176050;23;20035;-87
2023/08/12 00:30:00;;;;;;;7.05;4.40;;;;;;;22.16;75.18;100138.25;6176788;23;20781;-86
2023/08/12 00:32:28;;;;;;;8.02;4.47;;;;;;;22.14;75.36;100148.47;6128674;23;20352;-87
2023/08/12 00:34:55;;;;;;;10.77;4.43;;;;;;;22.16;75.17;100135.53;6151993;23;20429;-87
2023/08/12 00:37:22;;;;;;;9.38;4.72;;;;;;;22.13;75.12;100133.25;6151932;23;20471;-86
2023/08/12 00:39:49;;;;;;;6.75;4.32;;;;;;;22.16;74.91;100136.41;6152715;23;20028;-87
2023/08/12 00:42:15;;;;;;;8.50;4.50;;;;;;;22.11;74.87;100122.66;6176837;23;20044;-87
2023/08/12 00:44:42;;;;;;;10.98;5.38;;;;;;;22.12;74.68;100129.72;6127371;23;20079;-86
2023/08/12 00:47:09;;;;;;;7.25;4.60;;;;;;;22.13;74.39;100127.84;6203571;23;20020;-86
2023/08/12 00:49:39;;;;;;;5.05;4.20;;;;;;;22.08;74.33;100126.59;6153287;23;20365;-86
2023/08/12 00:52:06;;;;;;;7.32;4.32;;;;;;;22.09;74.44;100127.44;6154225;23;20027;-86
2023/08/12 00:54:33;;;;;;;10.55;4.82;;;;;;;22.09;74.42;100132.84;6202403;23;20051;-87
2023/08/12 00:57:00;;;;;;;9.45;4.70;;;;;;;22.06;74.44;100130.56;6179634;23;20021;-87
2023/08/12 00:59:27;;;;;;;6.47;4.32;;;;;;;22.04;74.39;100128.03;6177681;23;20025;-87
2023/08/12 01:01:54;;;;;;;13.23;4.88;;;;;;;21.99;74.44;100129.69;6154893;23;20091;-87
2023/08/12 01:04:21;;;;;;;7.30;4.25;;;;;;;21.99;74.44;100132.41;6177592;23;20099;-87
2023/08/12 01:06:50;;;;;;;5.35;4.00;;;;;;;21.98;74.28;100128.88;6153578;23;20055;-87
2023/08/12 01:09:17;;;;;;;7.18;4.70;;;;;;;21.99;74.48;100122.41;6202706;23;20035;-87
2023/08/12 01:11:49;;;;;;;5.82;4.40;;;;;;;21.96;74.30;100122.00;6178719;23;20021;-88
2023/08/12 01:14:23;;;;;;;;;;;;;;;21.72;75.34;100117.94;6177817;23;20082;-87
2023/08/12 01:16:55;;;;;;;6.20;4.15;;;;;;;21.88;74.83;100121.13;6178829;23;19936;-87
2023/08/12 01:19:34;;;;;;;6.07;4.82;;;;;;;21.81;74.96;100114.03;6128532;23;20030;-87
2023/08/12 01:22:02;;;;;;;5.53;4.32;;;;;;;21.86;74.70;100101.56;6153080;23;20032;-86
2023/08/12 01:24:44;;;;;;;6.25;4.38;;;;;;;21.75;75.41;100104.84;6176856;23;20091;-87
2023/08/12 01:27:12;;;;;;;5.68;4.32;;;;;;;21.84;75.31;100106.34;6178636;23;20016;-86
2023/08/12 01:29:44;;;;;;;7.55;4.57;;;;;;;21.84;75.13;100109.03;6129520;23;20025;-86
2023/08/12 01:32:25;;;;;;;6.40;3.83;;;;;;;21.78;75.15;100087.38;6152649;23;20020;-87
2023/08/12 01:35:30;;;;;;;4.70;4.28;;;;;;;21.81;75.18;100087.81;6152814;23;20514;-87
2023/08/12 01:37:57;;;;;;;7.70;4.32;;;;;;;21.84;75.37;100092.81;6113468;23;20035;-87
2023/08/12 01:40:25;;;;;;;8.88;3.90;;;;;;;21.81;75.45;100087.81;6177009;23;20455;-87
2023/08/12 01:42:52;;;;;;;6.35;4.15;;;;;;;21.82;75.42;100094.06;6177769;23;20024;-86
2023/08/12 01:45:19;;;;;;;6.18;4.57;;;;;;;21.79;75.47;100089.06;6154180;23;20024;-87
2023/08/12 01:47:46;;;;;;;4.80;3.80;;;;;;;21.79;75.59;100089.06;6178830;23;20020;-86
2023/08/12 01:50:13;;;;;;;6.25;4.03;;;;;;;21.79;75.37;100089.06;6202203;23;20352;-87
2023/08/12 01:52:40;;;;;;;8.73;4.30;;;;;;;21.78;75.36;100095.50;6153347;23;20031;-87
2023/08/12 01:55:07;;;;;;;6.70;4.43;;;;;;;21.77;75.38;100100.06;6153695;23;20581;-86
2023/08/12 01:57:34;;;;;;;7.03;5.13;;;;;;;21.75;75.52;100096.72;6153269;23;20107;-87
2023/08/12 02:00:04;;;;;;;5.90;4.28;;;;;;;21.75;75.64;100093.19;6177170;23;20429;-87
2023/08/12 02:02:42;;;;;;;7.30;4.47;;;;;;;21.76;75.53;100103.00;6181059;23;20017;-86
2023/08/12 02:05:09;;;;;;;6.15;4.50;;;;;;;21.74;75.55;100095.06;6153850;23;20017;-86
2023/08/12 02:07:36;;;;;;;8.48;4.75;;;;;;;21.78;75.56;100106.31;6178098;23;20036;-86
2023/08/12 02:10:03;;;;;;;6.85;4.43;;;;;;;21.78;75.49;100107.16;6129056;23;20023;-86
2023/08/12 02:12:31;;;;;;;6.88;4.47;;;;;;;21.77;75.42;100104.66;6177212;23;20389;-88
2023/08/12 02:14:58;;;;;;;6.55;4.45;;;;;;;21.75;75.94;100104.84;6178013;23;20032;-86
2023/08/12 02:17:25;;;;;;;4.70;4.22;;;;;;;21.75;76.15;100098.59;6153240;23;20019;-88
2023/08/12 02:19:52;;;;;;;4.80;4.32;;;;;;;21.75;75.86;100095.91;6201602;23;20024;-87
2023/08/12 02:22:18;;;;;;;6.78;4.90;;;;;;;21.74;75.79;100097.78;6178378;23;20017;-87
2023/08/12 02:24:46;;;;;;;5.53;3.90;;;;;;;21.74;75.93;100089.66;6178263;23;20115;-87
2023/08/12 02:27:13;;;;;;;7.07;4.13;;;;;;;21.71;75.57;100091.97;6151915;23;20079;-87
2023/08/12 02:29:40;;;;;;;6.32;4.25;;;;;;;21.72;75.54;100094.44;6177262;23;20050;-87
2023/08/12 02:32:07;;;;;;;6.53;4.28;;;;;;;21.74;75.27;100095.06;6153492;23;20043;-87
2023/08/12 02:34:33;;;;;;;5.95;4.40;;;;;;;21.76;74.99;100087.59;6177485;23;20020;-87
2023/08/12 02:37:00;;;;;;;5.28;4.60;;;;;;;21.75;74.84;100077.81;6153721;23;20500;-87
2023/08/12 02:39:29;;;;;;;8.43;4.70;;;;;;;21.75;74.67;100080.50;6176135;23;20074;-87
2023/08/12 02:41:56;;;;;;;6.47;4.38;;;;;;;21.76;74.67;100075.97;6177453;23;20095;-87
2023/08/12 02:44:22;;;;;;;7.60;4.60;;;;;;;21.75;74.34;100077.81;6177705;23;20035;-87
2023/08/12 02:46:49;;;;;;;7.00;4.40;;;;;;;21.74;74.99;100068.03;6152299;23;20100;-87
2023/08/12 02:49:16;;;;;;;8.43;4.78;;;;;;;21.72;75.57;100077.41;6152360;23;20016;-88
2023/08/12 02:51:43;;;;;;;4.70;4.15;;;;;;;21.70;75.60;100071.34;6178244;23;20441;-87
2023/08/12 02:54:10;;;;;;;5.03;3.88;;;;;;;21.71;75.79;100078.44;6153282;23;20043;-87
2023/08/12 02:56:37;;;;;;;11.15;5.28;;;;;;;21.68;76.11;100072.41;6176321;23;20020;-87
2023/08/12 02:59:04;;;;;;;8.05;4.63;;;;;;;21.70;75.12;100072.19;6153519;23;20024;-87
2023/08/12 03:01:31;;;;;;;5.90;4.43;;;;;;;21.67;74.99;100067.19;6152095;23;20464;-88
2023/08/12 03:03:57;;;;;;;7.00;4.25;;;;;;;21.69;74.81;100073.22;6171989;23;20028;-87
2023/08/12 03:06:24;;;;;;;12.27;4.68;;;;;;;21.67;75.13;100067.19;6127500;23;20016;-88
2023/08/12 03:08:51;;;;;;;5.22;4.65;;;;;;;21.68;75.25;100068.88;6152754;23;20024;-88
2023/08/12 03:11:19;;;;;;;5.63;5.00;;;;;;;21.67;75.12;100069.88;6151645;23;20078;-87
2023/08/12 03:13:46;;;;;;;9.60;4.25;;;;;;;21.66;75.30;100068.22;6177352;23;20396;-87
2023/08/12 03:16:14;;;;;;;10.23;4.68;;;;;;;21.64;76.00;100064.88;6177120;23;20452;-87
2023/08/12 03:18:43;;;;;;;8.73;4.40;;;;;;;21.60;76.41;100069.03;6154419;23;20021;-87
2023/08/12 03:21:10;;;;;;;7.63;4.25;;;;;;;21.60;76.60;100061.78;6152250;23;20036;-87
2023/08/12 03:23:38;;;;;;;6.63;4.13;;;;;;;21.59;77.32;100067.38;6128526;23;20421;-87
2023/08/12 03:26:08;;;;;;;6.70;4.88;;;;;;;21.60;77.30;100066.31;6153942;23;20028;-87
2023/08/12 03:28:35;;;;;;;5.70;4.43;;;;;;;21.58;77.13;100060.31;6153084;23;20091;-87
2023/08/12 03:31:02;;;;;;;7.47;4.43;;;;;;;21.59;77.65;100065.50;6176738;23;20407;-87
2023/08/12 03:33:33;;;;;;;5.07;4.03;;;;;;;21.58;77.76;100063.84;6153657;23;21020;-87
2023/08/12 03:36:01;;;;;;;7.45;4.65;;;;;;;21.57;77.92;100064.84;6153130;23;20059;-88
2023/08/12 03:38:28;;;;;;;8.30;4.30;;;;;;;21.56;78.11;100060.50;6151809;23;20487;-88
2023/08/12 03:40:55;;;;;;;6.97;4.47;;;;;;;21.57;78.21;100059.44;6176479;23;20099;-87
2023/08/12 03:43:21;;;;;;;6.60;4.57;;;;;;;21.59;78.34;100065.50;6201692;23;20017;-88
2023/08/12 03:45:49;;;;;;;8.90;4.22;;;;;;;21.55;78.38;100066.94;6151739;23;20024;-88
2023/08/12 03:48:18;;;;;;;6.70;4.32;;;;;;;21.57;78.48;100064.84;6178291;23;20024;-87
2023/08/12 03:50:47;;;;;;;8.35;4.63;;;;;;;21.56;78.34;100067.78;6127180;23;20028;-87
2023/08/12 03:53:14;;;;;;;11.48;5.10;;;;;;;21.53;78.19;100058.22;6128257;23;20099;-87
2023/08/12 03:55:41;;;;;;;7.13;4.72;;;;;;;21.54;78.50;100064.44;6177080;23;20059;-88
2023/08/12 03:58:09;;;;;;;7.05;4.55;;;;;;;21.51;78.29;100057.56;6176635;23;20726;-87
2023/08/12 04:00:40;;;;;;;6.78;5.07;;;;;;;21.53;78.16;100060.91;6176743;23;20098;-87
2023/08/12 04:03:07;;;;;;;7.35;4.18;;;;;;;21.54;78.46;100059.84;6176362;23;20027;-87
2023/08/12 04:05:34;;;;;;;8.07;4.55;;;;;;;21.55;78.70;100063.38;6152550;23;20036;-88
2023/08/12 04:08:02;;;;;;;4.70;4.28;;;;;;;21.57;78.60;100072.13;6177391;23;20031;-87
2023/08/12 04:10:30;;;;;;;6.28;4.13;;;;;;;21.55;78.42;100066.94;6126233;23;20028;-86
2023/08/12 04:12:56;;;;;;;5.72;4.68;;;;;;;21.52;78.84;100072.72;6152063;23;20065;-87
2023/08/12 04:15:23;;;;;;;6.35;4.03;;;;;;;21.50;78.87;100065.88;6151798;23;20024;-87
2023/08/12 04:17:51;;;;;;;6.10;4.65;;;;;;;21.54;78.86;100080.66;6176922;23;20021;-86
2023/08/12 04:20:18;;;;;;;6.55;4.50;;;;;;;21.50;78.84;100073.97;6177758;23;20608;-87
2023/08/12 04:22:45;;;;;;;4.80;4.28;;;;;;;21.51;78.93;100072.94;6129546;23;20100;-87
2023/08/12 04:25:15;;;;;;;7.80;5.25;;;;;;;21.49;78.81;100064.22;6131203;23;20024;-87
2023/08/12 04:27:42;;;;;;;7.47;4.75;;;;;;;21.51;78.04;100073.78;6178390;23;20028;-87
2023/08/12 04:30:10;;;;;;;7.97;4.70;;;;;;;21.52;78.35;100069.19;6178398;23;20094;-87
2023/08/12 04:32:37;;;;;;;8.30;4.90;;;;;;;21.46;79.13;100070.84;6178987;23;20020;-87
2023/08/12 04:35:06;;;;;;;7.57;5.00;;;;;;;21.49;79.09;100072.31;6179507;23;20381;-87
2023/08/12 04:37:36;;;;;;;4.80;3.90;;;;;;;21.49;79.44;100069.63;6153653;23;20355;-87
2023/08/12 04:40:05;;;;;;;7.35;5.25;;;;;;;21.45;79.53;100061.91;6178641;23;20068;-86
2023/08/12 04:42:31;;;;;;;8.85;4.72;;;;;;;21.49;79.53;100065.03;6178792;23;20086;-87
2023/08/12 04:44:58;;;;;;;5.85;4.25;;;;;;;21.46;79.71;100058.16;6154016;23;20035;-87
2023/08/12 04:47:29;;;;;;;8.60;4.43;;;;;;;21.49;79.36;100061.50;6155170;23;20027;-88
2023/08/12 04:49:56;;;;;;;7.75;4.75;;;;;;;21.49;78.85;100059.63;6129621;23;20021;-87
2023/08/12 04:52:24;;;;;;;8.15;4.60;;;;;;;21.46;79.17;100054.63;6179393;23;20507;-87
2023/08/12 04:54:54;;;;;;;7.20;4.40;;;;;;;21.46;79.44;100054.63;6178952;23;20082;-87
2023/08/12 04:57:23;;;;;;;7.22;4.82;;;;;;;21.46;79.17;100044.66;6153278;23;20025;-87
2023/08/12 04:59:50;;;;;;;10.18;6.78;;;;;;;21.49;79.67;100040.72;6129458;23;20094;-87
2023/08/12 05:02:18;;;;;;;9.43;5.00;;;;;;;21.51;79.70;100038.66;6178251;23;25878;-87
2023/08/12 05:04:49;;;;;;;9.88;4.95;;;;;;;21.51;79.96;100046.75;6128567;23;20493;-87
2023/08/12 05:07:17;;;;;;;10.00;4.70;;;;;;;21.52;79.70;100056.53;6178848;23;20020;-87
2023/08/12 05:09:44;;;;;;;9.60;5.30;;;;;;;21.55;79.66;100058.84;6203402;23;20028;-87
2023/08/12 05:12:13;;;;;;;5.60;5.00;;;;;;;21.54;79.82;100046.34;6178924;23;20091;-87
2023/08/12 05:14:40;;;;;;;8.68;5.13;;;;;;;21.56;79.75;100048.88;6152977;23;20059;-86
2023/08/12 05:17:08;;;;;;;7.28;4.90;;;;;;;21.56;79.55;100043.47;6179289;23;20009;-87
2023/08/12 05:19:36;;;;;;;8.15;4.80;;;;;;;21.58;79.83;100054.91;6178420;23;20092;-87
2023/08/12 05:22:03;;;;;;;15.75;5.50;;;;;;;21.58;79.62;100049.50;6153617;23;20031;-86
2023/08/12 05:24:30;;;;;;;7.90;5.63;;;;;;;21.60;79.64;100058.22;6153156;23;20013;-87
2023/08/12 05:26:57;;;;;;;5.63;4.50;;;;;;;21.60;79.67;100055.50;6178145;23;20051;-87
2023/08/12 05:29:24;;;;;;;7.60;6.70;;;;;;;21.60;79.90;100050.97;6178215;23;20032;-87
2023/08/12 05:31:50;;;;;;;7.70;5.22;;;;;;;21.59;80.14;100043.88;6153751;23;20027;-87
2023/08/12 05:34:17;;;;;;;8.95;5.35;;;;;;;21.61;80.22;100052.63;6151463;23;20093;-87
2023/08/12 05:36:44;;;;;;;7.60;5.20;;;;;;;21.61;80.05;100051.78;6153664;23;20075;-87
2023/08/12 05:39:11;;;;;;;5.30;4.80;;;;;;;21.61;80.45;100057.19;6154128;23;20389;-87
2023/08/12 05:41:38;;;;;;;7.80;5.47;;;;;;;21.61;80.57;100052.63;6178074;23;20086;-87
2023/08/12 05:44:05;;;;;;;6.43;4.60;;;;;;;21.65;80.80;100048.50;6177471;23;20039;-87
2023/08/12 05:46:32;;;;;;;7.57;5.20;;;;;;;21.67;80.54;100053.66;6177838;23;20417;-87
2023/08/12 05:48:59;;;;;;;6.60;4.82;;;;;;;21.67;80.63;100056.38;6178541;23;20032;-87
2023/08/12 05:51:26;;;;;;;9.85;4.95;;;;;;;21.67;80.60;100053.66;6177716;23;20033;-87
2023/08/12 05:53:56;;;;;;;8.73;5.38;;;;;;;21.69;80.67;100057.00;6203228;23;20348;-87
2023/08/12 05:56:23;;;;;;;9.63;4.97;;;;;;;21.72;80.60;100063.88;6152731;23;20441;-87
2023/08/12 05:58:50;;;;;;;7.53;4.75;;;;;;;21.74;80.31;100056.41;6153305;23;20036;-86
2023/08/12 06:01:17;;;;;;;8.30;5.40;;;;;;;21.75;80.29;100061.59;6127363;23;20074;-87
2023/08/12 06:03:45;;;;;;;5.97;4.65;;;;;;;21.74;80.29;100048.28;6178097;23;20016;-87
2023/08/12 06:06:11;;;;;;;4.85;4.35;;;;;;;21.74;80.18;100049.13;6177760;23;20095;-87
2023/08/12 06:08:38;;;;;;;8.77;5.05;;;;;;;21.76;80.14;100055.16;6128025;23;20019;-87
2023/08/12 06:11:05;;;;;;;6.15;4.60;;;;;;;21.73;80.25;100057.44;6152564;23;20024;-86
2023/08/12 06:13:32;;;;;;;6.25;4.80;;;;;;;21.73;79.96;100063.69;6176825;23;20020;-86
2023/08/12 06:15:58;;;;;;;6.85;4.93;;;;;;;21.72;80.13;100056.59;6178624;23;20345;-87
2023/08/12 06:18:26;;;;;;;6.40;4.97;;;;;;;21.71;80.35;100049.53;6152290;23;20091;-87
2023/08/12 06:20:52;;;;;;;6.32;5.13;;;;;;;21.71;80.46;100054.13;6177087;23;20055;-86
2023/08/12 06:23:19;;;;;;;8.45;5.57;;;;;;;21.70;80.36;100060.53;6152861;23;20016;-87
2023/08/12 06:25:46;;;;;;;8.48;5.22;;;;;;;21.72;80.89;100067.41;6153215;23;20075;-87
2023/08/12 06:28:13;;;;;;;8.07;5.05;;;;;;;21.75;80.67;100058.06;6202069;23;20399;-86
2023/08/12 06:30:40;;;;;;;8.57;4.93;;;;;;;21.81;80.27;100068.06;6127585;23;20091;-87
2023/08/12 06:33:07;;;;;;;5.85;4.78;;;;;;;21.86;79.92;100062.91;6152536;23;20076;-87
2023/08/12 06:35:34;;;;;;;8.45;5.35;;;;;;;21.94;79.88;100064.56;6177286;23;20028;-86
2023/08/12 06:38:01;;;;;;;6.97;5.22;;;;;;;21.95;79.64;100056.25;6153733;23;20035;-86
2023/08/12 06:40:27;;;;;;;5.22;4.65;;;;;;;22.04;79.21;100056.91;6152383;23;20025;-87
2023/08/12 06:42:54;;;;;;;6.93;4.65;;;;;;;22.03;79.27;100066.88;6177650;23;20025;-86
2023/08/12 06:45:21;;;;;;;8.40;4.75;;;;;;;22.05;78.85;100061.25;6201496;23;20156;-86
2023/08/12 06:47:48;;;;;;;10.35;5.22;;;;;;;22.06;79.11;100060.25;6176447;23;20021;-86
2023/08/12 06:50:14;;;;;;;9.63;5.28;;;;;;;22.07;79.00;100064.59;6176716;23;20614;-86
2023/08/12 06:52:41;;;;;;;7.65;5.00;;;;;;;22.11;79.84;100055.88;6175830;23;20028;-83
2023/08/12 06:55:08;;;;;;;11.90;5.35;;;;;;;22.17;79.33;100056.09;6175503;23;20188;-84
2023/08/12 06:57:35;;;;;;;6.43;5.60;;;;;;;22.21;79.14;100068.19;6152847;23;20016;-84
2023/08/12 07:00:03;;;;;;;9.77;5.30;;;;;;;22.24;78.62;100056.97;6153352;23;20398;-85
2023/08/12 07:02:30;;;;;;;10.70;5.10;;;;;;;22.28;78.74;100044.69;6176154;23;20086;-84
2023/08/12 07:04:57;;;;;;;8.50;4.68;;;;;;;22.36;78.69;100058.00;6177398;23;20028;-84
2023/08/12 07:07:23;;;;;;;8.77;4.95;;;;;;;22.38;78.85;100057.78;6201817;23;20048;-84
2023/08/12 07:09:50;;;;;;;7.05;4.80;;;;;;;22.38;78.56;100052.38;6201943;23;20085;-84
2023/08/12 07:12:17;;;;;;;10.30;5.78;;;;;;;22.39;78.60;100048.63;6201317;23;20091;-84
2023/08/12 07:14:44;;;;;;;12.52;5.30;;;;;;;22.42;78.39;100046.34;6152473;23;20462;-84
2023/08/12 07:17:10;;;;;;;10.80;5.57;;;;;;;22.43;78.59;100049.88;6205039;23;20023;-84
2023/08/12 07:19:37;;;;;;;7.80;5.40;;;;;;;22.49;78.65;100049.03;6176041;23;20024;-85
2023/08/12 07:22:04;;;;;;;9.85;5.13;;;;;;;22.53;78.47;100043.00;6178000;23;20031;-84
2023/08/12 07:24:31;;;;;;;6.57;5.40;;;;;;;22.58;78.33;100045.09;6152824;23;20357;-85
2023/08/12 07:26:58;;;;;;;11.85;6.25;;;;;;;22.62;78.56;100040.94;6152337;23;20631;-85
2023/08/12 07:29:25;;;;;;;9.43;5.50;;;;;;;22.64;78.41;100038.84;6203557;23;20429;-84
2023/08/12 07:31:52;;;;;;;6.57;5.53;;;;;;;22.65;78.47;100042.41;6177264;23;20023;-85
2023/08/12 07:34:19;;;;;;;8.00;5.95;;;;;;;22.64;78.16;100046.13;6201254;23;20079;-85
2023/08/12 07:36:46;;;;;;;7.15;6.15;;;;;;;22.65;78.16;100039.69;6177491;23;20849;-84
2023/08/12 07:39:12;;;;;;;6.75;5.43;;;;;;;22.67;78.44;100045.69;6178035;23;20032;-85
2023/08/12 07:41:39;;;;;;;6.47;5.30;;;;;;;22.68;78.70;100053.63;6175840;23;20027;-85
2023/08/12 07:44:06;;;;;;;7.13;5.57;;;;;;;22.72;78.70;100060.31;6202384;23;20029;-87
2023/08/12 07:46:33;;;;;;;10.25;5.35;;;;;;;22.71;78.69;100058.63;6177901;23;20013;-84
2023/08/12 07:49:00;;;;;;;9.30;5.30;;;;;;;22.72;78.62;100060.31;6178103;23;20091;-88
2023/08/12 07:51:27;;;;;;;10.73;6.05;;;;;;;22.75;79.74;100048.22;6152382;23;20344;-87
2023/08/12 07:53:53;;;;;;;9.55;7.05;;;;;;;22.69;79.23;100051.75;6128723;23;20472;-87
2023/08/12 07:56:20;;;;;;;10.30;6.65;;;;;;;22.69;79.09;100057.16;6179022;23;20313;-87
2023/08/12 07:58:47;;;;;;;8.05;5.80;;;;;;;22.72;79.49;100057.59;6180230;23;20082;-87
2023/08/12 08:01:14;;;;;;;9.13;6.03;;;;;;;22.76;80.00;100056.09;6179991;23;20554;-86
2023/08/12 08:03:41;;;;;;;10.13;6.80;;;;;;;22.83;80.93;100052.56;6180377;23;20092;-85
2023/08/12 08:06:08;;;;;;;7.13;6.05;;;;;;;22.85;82.14;100056.75;6131383;23;20024;-87
2023/08/12 08:08:35;;;;;;;9.23;6.38;;;;;;;22.92;81.61;100062.13;6153498;23;20028;-86
2023/08/12 08:11:01;;;;;;;8.48;6.30;;;;;;;22.95;81.46;100059.03;6178811;23;20048;-87
2023/08/12 08:13:28;;;;;;;6.80;5.72;;;;;;;23.01;80.85;100044.66;6179669;23;20025;-86
2023/08/12 08:15:55;;;;;;;6.25;5.50;;;;;;;23.05;81.18;100050.47;6179369;23;20032;-85
2023/08/12 08:18:22;;;;;;;7.72;5.43;;;;;;;23.10;81.26;100053.38;6155319;23;20024;-89
2023/08/12 08:20:50;;;;;;;9.25;4.90;;;;;;;23.10;80.92;100048.81;6204964;23;20020;-88
2023/08/12 08:23:17;;;;;;;9.43;5.60;;;;;;;23.15;81.22;100048.16;6153596;23;20016;-88
2023/08/12 08:25:44;;;;;;;12.05;5.82;;;;;;;23.11;81.24;100036.91;6180000;23;20044;-88
2023/08/12 08:28:11;;;;;;;8.80;5.93;;;;;;;23.13;81.56;100044.84;6156587;23;20016;-88
2023/08/12 08:30:38;;;;;;;7.55;5.53;;;;;;;23.10;81.64;100029.00;6204484;23;20079;-89
2023/08/12 08:33:05;;;;;;;7.50;5.85;;;;;;;23.14;82.02;100031.06;6155158;23;20095;-89
2023/08/12 08:35:32;;;;;;;6.05;5.45;;;;;;;23.19;82.14;100035.84;6180229;23;20441;-88
2023/08/12 08:37:59;;;;;;;9.88;6.05;;;;;;;23.24;82.66;100029.81;6205581;23;20031;-89
2023/08/12 08:40:26;;;;;;;9.15;6.65;;;;;;;23.27;82.37;100029.38;6153256;23;20051;-89
2023/08/12 08:42:53;;;;;;;8.02;5.28;;;;;;;23.28;82.38;100025.59;6155518;23;20032;-89
2023/08/12 08:45:22;;;;;;;7.43;5.90;;;;;;;23.33;82.37;100033.91;6179173;23;20088;-89
2023/08/12 08:47:51;;;;;;;7.72;6.18;;;;;;;23.40;82.34;100021.19;6155732;23;20036;-89
2023/08/12 08:50:19;;;;;;;8.32;5.78;;;;;;;23.40;82.04;100022.00;6179965;23;20035;-89
2023/08/12 08:52:46;;;;;;;8.95;5.82;;;;;;;23.45;81.93;100023.25;6156377;23;20016;-88
2023/08/12 08:55:13;;;;;;;9.13;5.90;;;;;;;23.45;82.03;100026.78;6155654;23;20449;-88
2023/08/12 08:57:43;;;;;;;6.85;6.25;;;;;;;23.48;82.10;100028.22;6180447;23;20421;-88
2023/08/12 09:00:15;;;;;;;9.35;5.68;;;;;;;23.50;81.53;100032.38;6157515;23;20448;-89
2023/08/12 09:02:46;;;;;;;7.25;5.60;;;;;;;23.52;81.39;100021.34;6155951;23;20382;-87
2023/08/12 09:05:14;;;;;;;7.30;6.35;;;;;;;23.57;81.58;100021.53;6180859;23;20031;-90
2023/08/12 09:07:43;;;;;;;7.97;5.90;;;;;;;23.57;81.73;100021.53;6155422;23;20024;-89
2023/08/12 09:10:11;;;;;;;9.05;5.45;;;;;;;23.61;81.79;100029.00;6156584;23;20016;-89
2023/08/12 09:12:42;;;;;;;10.05;6.38;;;;;;;23.62;82.35;100033.38;6181703;23;20099;-89
2023/08/12 09:15:09;;;;;;;7.25;6.55;;;;;;;23.68;82.11;100033.56;6156280;23;20092;-90
2023/08/12 09:17:37;;;;;;;6.70;5.88;;;;;;;23.77;83.14;100040.44;6155086;23;20039;-89
2023/08/12 09:20:11;;;;;;;8.50;6.45;;;;;;;23.79;83.36;100036.47;6156228;23;20025;-90
2023/08/12 09:22:43;;;;;;;8.98;5.85;;;;;;;23.82;82.87;100030.59;6183009;23;20021;-90
2023/08/12 09:25:10;;;;;;;8.15;6.20;;;;;;;23.82;82.24;100019.75;6156132;23;20031;-89
2023/08/12 09:27:38;;;;;;;9.70;5.93;;;;;;;23.85;82.91;100028.50;6131139;23;20035;-89
2023/08/12 09:30:05;;;;;;;6.88;6.18;;;;;;;23.86;82.26;100030.97;6180709;23;20032;-91
2023/08/12 09:32:34;;;;;;;6.18;5.57;;;;;;;23.90;82.34;100026.78;6156581;23;20429;-90
2023/08/12 09:35:05;;;;;;;8.07;5.60;;;;;;;23.92;82.84;100024.69;6155225;23;20024;-86
2023/08/12 09:37:32;;;;;;;9.65;6.60;;;;;;;23.95;82.43;100023.44;6155688;23;20502;-87
2023/08/12 09:40:00;;;;;;;15.23;6.78;;;;;;;24.00;82.11;100021.72;6204734;23;20024;-87
2023/08/12 09:42:28;;;;;;;10.30;6.35;;;;;;;24.02;81.75;100014.19;6130644;23;20078;-87
2023/08/12 09:44:56;;;;;;;10.07;6.45;;;;;;;24.10;81.42;100010.38;6205317;23;20083;-87
2023/08/12 09:47:25;;;;;;;8.57;6.45;;;;;;;24.12;81.57;100007.44;6155026;23;20467;-86
2023/08/12 09:49:52;;;;;;;9.13;6.93;;;;;;;24.11;81.49;99994.94;6154587;23;20027;-87
2023/08/12 09:52:19;;;;;;;11.48;6.43;;;;;;;24.16;81.56;99998.63;6179537;23;20028;-88
2023/08/12 09:54:45;;;;;;;7.55;5.63;;;;;;;24.18;81.38;100001.13;6154769;23;20024;-87
2023/08/12 09:57:14;;;;;;;7.72;6.55;;;;;;;24.17;80.92;99994.03;6179541;23;20079;-88
2023/08/12 09:59:41;;;;;;;9.30;7.13;;;;;;;24.21;80.81;100006.13;6179999;23;20033;-86
2023/08/12 10:02:13;;;;;;;11.02;6.95;;;;;;;24.19;81.21;100000.06;6131561;23;20021;-87
2023/08/12 10:04:42;;;;;;;8.48;6.57;;;;;;;24.22;81.06;99999.63;6179863;23;20051;-87
2023/08/12 10:07:12;;;;;;;7.50;6.15;;;;;;;24.25;81.77;99991.91;6155014;23;20040;-87
2023/08/12 10:09:40;;;;;;;8.52;6.78;;;;;;;24.30;81.72;99988.53;6155267;23;20040;-87
2023/08/12 10:12:07;;;;;;;10.18;6.15;;;;;;;24.35;81.77;99990.53;6180118;23;20028;-87
2023/08/12 10:14:34;;;;;;;7.57;6.60;;;;;;;24.38;81.55;99987.41;6179751;23;20020;-87
2023/08/12 10:17:01;;;;;;;12.77;6.50;;;;;;;24.44;81.24;99981.06;6180133;23;20024;-87
2023/08/12 10:19:32;;;;;;;10.82;6.65;;;;;;;24.47;81.09;99977.94;6155241;23;20024;-88
2023/08/12 10:21:59;;;;;;;7.68;6.88;;;;;;;24.49;81.15;99962.28;6154545;23;20082;-88
2023/08/12 10:24:26;;;;;;;7.68;6.68;;;;;;;24.52;81.46;99964.53;6179329;23;20028;-88
2023/08/12 10:26:54;;;;;;;6.90;6.20;;;;;;;24.57;80.92;99953.00;6156113;23;20032;-87
2023/08/12 10:29:22;;;;;;;8.48;6.43;;;;;;;24.61;81.31;99965.09;6129277;23;20027;-88
2023/08/12 10:31:50;;;;;;;9.82;6.63;;;;;;;24.64;81.01;99956.50;6179964;23;20020;-88
2023/08/12 10:34:24;;;;;;;10.73;6.38;;;;;;;24.66;80.79;99957.09;6179388;23;20100;-87
2023/08/12 10:36:55;;;;;;;8.10;6.55;;;;;;;24.72;80.40;99961.63;6154783;23;20021;-89
2023/08/12 10:39:31;;;;;;;7.95;6.32;;;;;;;24.76;79.63;99962.00;6157076;23;20094;-88
2023/08/12 10:41:59;;;;;;;8.82;6.82;;;;;;;24.77;80.12;99960.94;6175921;23;20028;-91
2023/08/12 10:44:50;;;;;;;10.35;6.97;;;;;;;24.69;80.62;99964.78;6154557;23;20075;-88
2023/08/12 10:47:17;;;;;;;9.05;6.53;;;;;;;24.76;79.48;99965.56;6141068;23;20024;-87
2023/08/12 10:49:48;;;;;;;8.88;6.82;;;;;;;24.74;79.62;99964.94;6178856;23;20037;-88
2023/08/12 10:52:29;;;;;;;7.18;6.45;;;;;;;24.80;79.14;99974.06;6154010;23;20429;-88
2023/08/12 10:55:19;;;;;;;7.10;6.45;;;;;;;24.80;79.43;99961.31;6153892;23;20017;-89
2023/08/12 10:57:46;;;;;;;8.77;6.15;;;;;;;24.92;79.89;99955.97;6154191;23;20028;-87
2023/08/12 11:00:18;;;;;;;10.02;6.32;;;;;;;24.92;79.46;99959.50;6154565;23;20025;-88
2023/08/12 11:02:45;;;;;;;8.85;6.70;;;;;;;24.99;78.21;99955.91;6154066;23;20453;-88
2023/08/12 11:05:14;;;;;;;8.05;6.95;;;;;;;25.06;78.14;99957.47;6128237;23;20028;-90
2023/08/12 11:07:52;;;;;;;13.05;6.65;;;;;;;25.06;77.50;99956.63;6177204;23;20437;-91
2023/08/12 11:10:24;;;;;;;8.65;6.88;;;;;;;25.08;77.71;99952.63;6126813;23;20021;-91
2023/08/12 11:12:51;;;;;;;7.95;6.15;;;;;;;25.14;77.40;99950.91;6152991;23;20020;-91
2023/08/12 11:15:38;;;;;;;9.07;6.63;;;;;;;25.14;76.65;99948.19;6177208;23;20467;-89
2023/08/12 11:18:10;;;;;;;8.27;6.68;;;;;;;25.23;77.06;99935.13;6180583;23;20322;-90
2023/08/12 11:20:37;;;;;;;6.78;5.97;;;;;;;25.29;77.68;99940.50;6155088;23;20028;-90
2023/08/12 11:23:05;;;;;;;7.22;5.40;;;;;;;25.34;78.48;99937.09;6155498;23;20396;-89
2023/08/12 11:25:33;;;;;;;6.55;5.43;;;;;;;25.39;76.78;99937.22;6154222;23;20602;-88
2023/08/12 11:28:00;;;;;;;8.07;5.00;;;;;;;25.44;76.56;99947.38;6155275;23;20495;-88
2023/08/12 11:30:27;;;;;;;8.25;5.22;;;;;;;25.44;76.30;99945.53;6130488;23;20028;-87